Time;durP1;ratioP1;P1;durP2;ratioP2;P2;SDS_P1;SDS_P2;PMS_P1;PMS_P2;Temp;Humidity;BMP_temperature;BMP_pressure;BME280_temperature;BME280_humidity;BME280_pressure;Samples;Min_cycle;Max_cycle;Signal;HPM_P1;HPM_P2
2023/03/05 00:01:06;;;;;;;1999.90;999.90;;;1.80;99.90;;;;;;5012789;28;20033;-72
2023/03/05 00:03:32;;;;;;;1999.90;999.90;;;1.70;99.90;;;;;;4999617;28;20019;-72
2023/03/05 00:05:57;;;;;;;1999.90;999.90;;;1.60;99.90;;;;;;5024270;28;20030;-72
2023/03/05 00:08:23;;;;;;;1999.90;999.90;;;1.60;99.90;;;;;;5024701;28;20023;-71
2023/03/05 00:11:02;;;;;;;1999.90;999.90;;;1.60;99.90;;;;;;4993319;28;20054;-72
2023/03/05 00:13:28;;;;;;;1999.90;999.90;;;1.60;99.90;;;;;;4992652;28;20022;-72
2023/03/05 00:15:54;;;;;;;1999.90;999.90;;;1.60;99.90;;;;;;4992999;28;20039;-72
2023/03/05 00:18:20;;;;;;;1999.90;999.90;;;1.50;99.90;;;;;;4992589;28;20058;-72
2023/03/05 00:20:46;;;;;;;1999.90;999.90;;;1.50;99.90;;;;;;4992707;28;20134;-72
2023/03/05 00:23:12;;;;;;;1999.90;999.90;;;1.50;99.90;;;;;;4992864;28;20035;-72
2023/03/05 00:25:38;;;;;;;1999.90;999.90;;;1.50;99.90;;;;;;4996397;28;20389;-79
2023/03/05 00:28:04;;;;;;;1999.90;999.90;;;1.50;99.90;;;;;;4997145;28;20022;-72
2023/03/05 00:30:31;;;;;;;1999.90;999.90;;;1.50;99.90;;;;;;4996742;28;20011;-72
2023/03/05 00:32:56;;;;;;;1999.90;999.90;;;1.50;99.90;;;;;;4996906;28;20165;-72
2023/03/05 00:35:22;;;;;;;1999.90;999.90;;;1.40;99.90;;;;;;4996503;28;20106;-80
2023/03/05 00:37:47;;;;;;;1999.90;999.90;;;1.40;99.90;;;;;;4996480;28;20109;-72
2023/03/05 00:40:13;;;;;;;1999.90;999.90;;;1.40;99.90;;;;;;5021909;28;20032;-71
2023/03/05 00:42:39;;;;;;;1999.90;999.90;;;1.40;99.90;;;;;;5035761;28;20044;-72
2023/03/05 00:45:08;;;;;;;1999.90;999.90;;;1.40;99.90;;;;;;5033414;28;20029;-72
2023/03/05 00:47:34;;;;;;;1999.90;999.90;;;1.30;99.90;;;;;;5015387;28;20429;-80
2023/03/05 00:50:00;;;;;;;1999.90;999.90;;;1.30;99.90;;;;;;5015810;28;20022;-72
2023/03/05 00:52:26;;;;;;;1999.90;999.90;;;1.30;99.90;;;;;;5014623;28;20030;-72
2023/03/05 00:54:52;;;;;;;1999.90;999.90;;;1.30;99.90;;;;;;5015715;28;20029;-72
2023/03/05 00:57:18;;;;;;;1999.90;999.90;;;1.30;99.90;;;;;;5016073;28;20109;-72
2023/03/05 00:59:43;;;;;;;1999.90;999.90;;;1.30;99.90;;;;;;5015758;28;20151;-73
2023/03/05 01:02:09;;;;;;;1999.90;999.90;;;1.30;99.90;;;;;;5014066;28;20115;-72
2023/03/05 01:04:35;;;;;;;1999.90;999.90;;;1.20;99.90;;;;;;5000664;28;20037;-79
2023/03/05 01:07:00;;;;;;;1999.90;999.90;;;1.20;99.90;;;;;;5015986;28;20034;-72
2023/03/05 01:09:26;;;;;;;1999.90;999.90;;;1.20;99.90;;;;;;5015408;28;20026;-72
2023/03/05 01:11:53;;;;;;;1999.90;999.90;;;1.10;99.90;;;;;;5015546;28;20018;-73
2023/03/05 01:14:19;;;;;;;1999.90;999.90;;;1.10;99.90;;;;;;5015725;28;20102;-72
2023/03/05 01:16:46;;;;;;;1999.90;999.90;;;1.10;99.90;;;;;;5015077;28;20045;-80
2023/03/05 01:19:13;;;;;;;1999.90;999.90;;;1.10;99.90;;;;;;5015469;28;20337;-72
2023/03/05 01:21:38;;;;;;;1999.90;999.90;;;1.10;99.90;;;;;;5015280;28;20030;-72
2023/03/05 01:24:05;;;;;;;1999.90;999.90;;;1.00;99.90;;;;;;5015571;28;20022;-74
2023/03/05 01:26:30;;;;;;;1999.90;999.90;;;1.00;99.90;;;;;;5015333;28;20034;-80
2023/03/05 01:28:56;;;;;;;1999.90;999.90;;;1.00;99.90;;;;;;5015560;28;20400;-80
2023/03/05 01:31:21;;;;;;;1999.90;999.90;;;1.00;99.90;;;;;;5015191;28;20105;-72
2023/03/05 01:33:47;;;;;;;1999.90;999.90;;;0.90;99.90;;;;;;5015228;28;20014;-72
2023/03/05 01:36:15;;;;;;;1999.90;999.90;;;0.90;99.90;;;;;;5014802;28;20473;-72
2023/03/05 01:38:45;;;;;;;1999.90;999.90;;;0.90;99.90;;;;;;5015247;28;20162;-72
2023/03/05 01:41:12;;;;;;;1999.90;999.90;;;0.90;99.90;;;;;;5034992;28;20026;-72
2023/03/05 01:43:38;;;;;;;1999.90;999.90;;;0.90;99.90;;;;;;5034793;28;20029;-80
2023/03/05 01:46:28;;;;;;;1999.90;999.90;;;0.80;99.90;;;;;;5055813;28;20042;-72
2023/03/05 01:49:23;;;;;;;1999.90;999.90;;;0.80;99.90;;;;;;5015107;28;20026;-72
2023/03/05 01:52:16;;;;;;;1999.90;999.90;;;0.80;99.90;;;;;;5014863;28;20052;-72
2023/03/05 01:54:46;;;;;;;1999.90;999.90;;;0.80;99.90;;;;;;5013720;28;20396;-79
2023/03/05 01:57:15;;;;;;;1999.90;999.90;;;0.70;99.90;;;;;;5014848;28;20079;-72
2023/03/05 01:59:44;;;;;;;1999.90;999.90;;;0.70;99.90;;;;;;5014775;28;20032;-80
2023/03/05 02:02:11;;;;;;;1999.90;999.90;;;0.70;99.90;;;;;;5012765;28;20072;-72
2023/03/05 02:04:42;;;;;;;1999.90;999.90;;;0.60;99.90;;;;;;5026502;28;20510;-72
2023/03/05 02:07:09;;;;;;;1999.90;999.90;;;0.60;99.90;;;;;;4994961;28;20027;-80
2023/03/05 02:09:40;;;;;;;1999.90;999.90;;;0.60;99.90;;;;;;4994718;28;20520;-80
2023/03/05 02:12:07;;;;;;;1999.90;999.90;;;0.60;99.90;;;;;;4994737;28;20164;-71
2023/03/05 02:14:34;;;;;;;1999.90;999.90;;;0.60;99.90;;;;;;4995004;28;20035;-72
2023/03/05 02:16:59;;;;;;;1999.90;999.90;;;0.50;99.90;;;;;;4995043;28;20027;-72
2023/03/05 02:19:25;;;;;;;1999.90;999.90;;;0.50;99.90;;;;;;4994693;28;20033;-79
2023/03/05 02:21:51;;;;;;;1999.90;999.90;;;0.50;99.90;;;;;;4994615;28;20022;-72
2023/03/05 02:24:33;;;;;;;1999.90;999.90;;;0.50;99.90;;;;;;4994812;28;20456;-71
2023/03/05 02:26:59;;;;;;;1999.90;999.90;;;0.40;99.90;;;;;;5014418;28;20464;-72
2023/03/05 02:29:28;;;;;;;1999.90;999.90;;;0.40;99.90;;;;;;5012654;28;20030;-72
2023/03/05 02:31:54;;;;;;;1999.90;999.90;;;0.40;99.90;;;;;;5014218;28;20522;-80
2023/03/05 02:34:20;;;;;;;1999.90;999.90;;;0.40;99.90;;;;;;5013833;28;20370;-80
2023/03/05 02:36:46;;;;;;;1999.90;999.90;;;0.40;99.90;;;;;;5014180;28;20030;-71
2023/03/05 02:39:11;;;;;;;1999.90;999.90;;;0.40;99.90;;;;;;5018030;28;20155;-71
2023/03/05 02:41:37;;;;;;;1999.90;999.90;;;0.40;99.90;;;;;;5033758;28;20021;-71
2023/03/05 02:44:03;;;;;;;1999.90;999.90;;;0.40;99.90;;;;;;5033858;28;20511;-72
2023/03/05 02:46:29;;;;;;;1999.90;999.90;;;0.30;99.90;;;;;;5018820;28;20046;-79
2023/03/05 02:48:54;;;;;;;1999.90;999.90;;;0.30;99.90;;;;;;5014121;28;20075;-72
2023/03/05 02:51:20;;;;;;;1999.90;999.90;;;0.30;99.90;;;;;;5013436;28;20104;-71
2023/03/05 02:53:45;;;;;;;1999.90;999.90;;;0.20;99.90;;;;;;5013723;28;20030;-72
2023/03/05 02:56:11;;;;;;;1999.90;999.90;;;0.20;99.90;;;;;;5013885;28;20037;-72
2023/03/05 02:58:37;;;;;;;1999.90;999.90;;;0.20;99.90;;;;;;5013668;28;20017;-80
2023/03/05 03:01:03;;;;;;;1999.90;999.90;;;0.20;99.90;;;;;;5013595;28;20029;-80
2023/03/05 03:03:28;;;;;;;1999.90;999.90;;;0.20;99.90;;;;;;5000747;28;20049;-72
2023/03/05 03:05:54;;;;;;;1999.90;999.90;;;0.20;99.90;;;;;;4994127;28;20050;-72
2023/03/05 03:08:20;;;;;;;1999.90;999.90;;;0.20;99.90;;;;;;4993891;28;20073;-72
2023/03/05 03:10:45;;;;;;;1999.90;999.90;;;0.20;99.90;;;;;;4993887;28;20029;-72
2023/03/05 03:13:11;;;;;;;1999.90;999.90;;;0.10;99.90;;;;;;4993812;28;20093;-80
2023/03/05 03:15:38;;;;;;;1999.90;999.90;;;0.10;99.90;;;;;;4993897;28;20036;-72
2023/03/05 03:18:03;;;;;;;1999.90;999.90;;;0.10;99.90;;;;;;5025403;28;20080;-71
2023/03/05 03:20:29;;;;;;;1999.90;999.90;;;0.10;99.90;;;;;;4993862;28;20022;-72
2023/03/05 03:22:54;;;;;;;1999.90;999.90;;;0.00;99.90;;;;;;4993925;28;20033;-80
2023/03/05 03:25:21;;;;;;;1999.90;999.90;;;0.10;99.90;;;;;;4993923;28;20398;-71
2023/03/05 03:27:47;;;;;;;1999.90;999.90;;;0.00;99.90;;;;;;4993665;28;20489;-72
2023/03/05 03:30:14;;;;;;;1999.90;999.90;;;0.10;99.90;;;;;;4993541;28;20090;-72
2023/03/05 03:32:40;;;;;;;1999.90;999.90;;;0.10;99.90;;;;;;4993654;28;20030;-72
2023/03/05 03:35:06;;;;;;;1999.90;999.90;;;0.10;99.90;;;;;;4993602;28;20490;-71
2023/03/05 03:37:32;;;;;;;1999.90;999.90;;;0.00;99.90;;;;;;4993314;28;20117;-80
2023/03/05 03:39:57;;;;;;;1999.90;999.90;;;0.00;99.90;;;;;;5014535;28;20053;-80
2023/03/05 03:42:23;;;;;;;1999.90;999.90;;;0.00;99.90;;;;;;5032908;28;20104;-72
2023/03/05 03:44:50;;;;;;;1999.90;999.90;;;0.00;99.90;;;;;;5032573;28;20033;-72
2023/03/05 03:47:16;;;;;;;1999.90;999.90;;;-0.10;99.90;;;;;;5044048;28;20472;-72
2023/03/05 03:49:41;;;;;;;1999.90;999.90;;;-0.10;99.90;;;;;;5012969;28;20089;-72
2023/03/05 03:52:07;;;;;;;1999.90;999.90;;;-0.10;99.90;;;;;;5012780;28;20066;-80
2023/03/05 03:54:33;;;;;;;1999.90;999.90;;;-0.10;99.90;;;;;;5012949;28;20080;-71
2023/03/05 03:56:58;;;;;;;1999.90;999.90;;;-0.10;99.90;;;;;;5012957;28;20541;-72
2023/03/05 03:59:24;;;;;;;1999.90;999.90;;;-0.10;99.90;;;;;;5014793;28;20049;-72
2023/03/05 04:01:50;;;;;;;1999.90;999.90;;;-0.10;99.90;;;;;;5016708;28;20448;-72
2023/03/05 04:04:16;;;;;;;1999.90;999.90;;;-0.10;99.90;;;;;;4998030;28;20477;-71
2023/03/05 04:06:42;;;;;;;1999.90;999.90;;;-0.10;99.90;;;;;;4996542;28;20481;-80
2023/03/05 04:09:08;;;;;;;1999.90;999.90;;;-0.20;99.90;;;;;;4997253;28;20027;-72
2023/03/05 04:11:35;;;;;;;1999.90;999.90;;;-0.20;99.90;;;;;;4996991;28;20121;-71
2023/03/05 04:14:01;;;;;;;1999.90;999.90;;;-0.20;99.90;;;;;;4997171;28;20046;-71
2023/03/05 04:16:26;;;;;;;1999.90;999.90;;;-0.20;99.90;;;;;;4996689;28;20452;-80
2023/03/05 04:18:52;;;;;;;1999.90;999.90;;;-0.20;99.90;;;;;;4997009;28;20109;-72
2023/03/05 04:21:18;;;;;;;1999.90;999.90;;;-0.20;99.90;;;;;;4996721;28;20084;-72
2023/03/05 04:23:44;;;;;;;1999.90;999.90;;;-0.20;99.90;;;;;;4997202;28;20474;-71
2023/03/05 04:26:09;;;;;;;1999.90;999.90;;;-0.20;99.90;;;;;;4996953;28;20030;-71
2023/03/05 04:28:35;;;;;;;1999.90;999.90;;;-0.20;99.90;;;;;;4997096;28;20029;-72
2023/03/05 04:31:02;;;;;;;1999.90;999.90;;;-0.20;99.90;;;;;;4997051;28;20030;-80
2023/03/05 04:33:27;;;;;;;1999.90;999.90;;;-0.10;99.90;;;;;;4996986;28;20037;-71
2023/03/05 04:35:53;;;;;;;1999.90;999.90;;;-0.10;99.90;;;;;;4996618;28;20030;-71
2023/03/05 04:38:18;;;;;;;1999.90;999.90;;;-0.10;99.90;;;;;;4996387;28;20018;-72
2023/03/05 04:40:45;;;;;;;1999.90;999.90;;;-0.10;99.90;;;;;;5030025;28;20029;-71
2023/03/05 04:43:11;;;;;;;1999.90;999.90;;;-0.10;99.90;;;;;;5036214;28;20037;-80
2023/03/05 04:45:42;;;;;;;1999.90;999.90;;;-0.20;99.90;;;;;;5029523;28;20018;-80
2023/03/05 04:48:09;;;;;;;1999.90;999.90;;;-0.20;99.90;;;;;;5015489;28;20065;-72
2023/03/05 04:50:35;;;;;;;1999.90;999.90;;;-0.20;99.90;;;;;;5014561;28;20112;-71
2023/03/05 04:53:01;;;;;;;1999.90;999.90;;;-0.20;99.90;;;;;;5016079;28;20589;-73
2023/03/05 04:55:27;;;;;;;1999.90;999.90;;;-0.20;99.90;;;;;;5016062;28;20092;-79
2023/03/05 04:57:53;;;;;;;1999.90;999.90;;;-0.30;99.90;;;;;;5016278;28;20153;-72
2023/03/05 05:00:19;;;;;;;1999.90;999.90;;;-0.30;99.90;;;;;;5015902;28;20032;-72
2023/03/05 05:02:46;;;;;;;1999.90;999.90;;;-0.20;99.90;;;;;;5008893;28;20030;-72
2023/03/05 05:05:16;;;;;;;1999.90;999.90;;;-0.30;99.90;;;;;;4996313;28;20481;-72
2023/03/05 05:07:42;;;;;;;1999.90;999.90;;;-0.30;99.90;;;;;;4995995;28;20031;-80
2023/03/05 05:10:09;;;;;;;1999.90;999.90;;;-0.40;99.90;;;;;;4995723;28;20375;-80
2023/03/05 05:12:35;;;;;;;1999.90;999.90;;;-0.40;99.90;;;;;;4995917;28;20062;-72
2023/03/05 05:15:02;;;;;;;1999.90;999.90;;;-0.40;99.90;;;;;;5010972;28;20045;-72
2023/03/05 05:17:31;;;;;;;1999.90;999.90;;;-0.40;99.90;;;;;;4995824;28;20027;-72
2023/03/05 05:19:58;;;;;;;1999.90;999.90;;;-0.40;99.90;;;;;;4995827;28;20080;-80
2023/03/05 05:22:24;;;;;;;1999.90;999.90;;;-0.40;99.90;;;;;;4995893;28;20019;-71
2023/03/05 05:24:49;;;;;;;1999.90;999.90;;;-0.40;99.90;;;;;;4996430;28;20034;-72
2023/03/05 05:27:15;;;;;;;1999.90;999.90;;;-0.40;99.90;;;;;;4995746;28;20038;-72
2023/03/05 05:29:41;;;;;;;1999.90;999.90;;;-0.50;99.90;;;;;;5011050;28;20038;-71
2023/03/05 05:32:06;;;;;;;1999.90;999.90;;;-0.50;99.90;;;;;;4996039;28;20030;-71
2023/03/05 05:34:32;;;;;;;1999.90;999.90;;;-0.50;99.90;;;;;;4997235;28;20037;-80
2023/03/05 05:36:57;;;;;;;1999.90;999.90;;;-0.50;99.90;;;;;;5029081;28;20117;-72
2023/03/05 05:39:23;;;;;;;1999.90;999.90;;;-0.50;99.90;;;;;;5007309;28;20104;-80
2023/03/05 05:41:50;;;;;;;1999.90;999.90;;;-0.50;99.90;;;;;;5035359;28;20045;-72
2023/03/05 05:44:16;;;;;;;1999.90;999.90;;;-0.50;99.90;;;;;;5023291;28;20057;-71
2023/03/05 05:46:42;;;;;;;1999.90;999.90;;;-0.50;99.90;;;;;;5014828;28;20559;-80
2023/03/05 05:49:07;;;;;;;1999.90;999.90;;;-0.50;99.90;;;;;;5014328;28;20065;-81
2023/03/05 05:51:33;;;;;;;1999.90;999.90;;;-0.50;99.90;;;;;;5014698;28;20551;-72
2023/03/05 05:53:59;;;;;;;1999.90;999.90;;;-0.50;99.90;;;;;;5015096;28;20104;-71
2023/03/05 05:56:24;;;;;;;1999.90;999.90;;;-0.50;99.90;;;;;;5014882;28;20033;-72
2023/03/05 05:58:50;;;;;;;1999.90;999.90;;;-0.50;99.90;;;;;;5014935;28;20026;-80
2023/03/05 06:01:27;;;;;;;1999.90;999.90;;;-0.60;99.90;;;;;;5014468;28;20050;-80
2023/03/05 06:03:52;;;;;;;1999.90;999.90;;;-0.60;99.90;;;;;;4998677;28;20030;-72
2023/03/05 06:06:21;;;;;;;1999.90;999.90;;;-0.60;99.90;;;;;;4995090;28;20378;-72
2023/03/05 06:08:47;;;;;;;1999.90;999.90;;;-0.60;99.90;;;;;;4995146;28;20022;-71
2023/03/05 06:11:13;;;;;;;1999.90;999.90;;;-0.60;99.90;;;;;;4994997;28;20021;-72
2023/03/05 06:13:39;;;;;;;1999.90;999.90;;;-0.60;99.90;;;;;;4994893;28;20023;-80
2023/03/05 06:16:11;;;;;;;1999.90;999.90;;;-0.60;99.90;;;;;;4994720;28;20027;-80
2023/03/05 06:18:36;;;;;;;1999.90;999.90;;;-0.60;99.90;;;;;;4994901;28;20021;-72
2023/03/05 06:21:09;;;;;;;1999.90;999.90;;;-0.60;99.90;;;;;;4994394;28;20023;-72
2023/03/05 06:23:35;;;;;;;1999.90;999.90;;;-0.60;99.90;;;;;;4994522;28;20038;-72
2023/03/05 06:26:02;;;;;;;1999.90;999.90;;;-0.70;99.90;;;;;;4994759;28;20053;-71
2023/03/05 06:28:29;;;;;;;1999.90;999.90;;;-0.70;99.90;;;;;;5002658;28;20040;-80
2023/03/05 06:31:05;;;;;;;1999.90;999.90;;;-0.70;99.90;;;;;;5014250;28;20366;-72
2023/03/05 06:33:32;;;;;;;1999.90;999.90;;;-0.70;99.90;;;;;;5014089;28;20057;-72
2023/03/05 06:35:57;;;;;;;1999.90;999.90;;;-0.70;99.90;;;;;;5006314;28;20022;-71
2023/03/05 06:38:23;;;;;;;1999.90;999.90;;;-0.70;99.90;;;;;;4994511;28;20549;-81
2023/03/05 06:40:50;;;;;;;1999.90;999.90;;;-0.70;99.90;;;;;;5028880;28;20014;-71
2023/03/05 06:43:16;;;;;;;1999.90;999.90;;;-0.70;99.90;;;;;;5033598;28;20017;-72
2023/03/05 06:45:41;;;;;;;1999.90;999.90;;;-0.70;99.90;;;;;;5026795;28;20041;-72
2023/03/05 06:48:07;;;;;;;1999.90;999.90;;;-0.70;99.90;;;;;;5013639;28;20544;-72
2023/03/05 06:50:36;;;;;;;1999.90;999.90;;;-0.60;99.90;;;;;;5013745;28;20058;-72
2023/03/05 06:53:02;;;;;;;1999.90;999.90;;;-0.60;99.90;;;;;;5013571;28;20472;-81
2023/03/05 06:55:27;;;;;;;1999.90;999.90;;;-0.60;99.90;;;;;;5013584;28;20049;-80
2023/03/05 06:57:53;;;;;;;1999.90;999.90;;;-0.50;99.90;;;;;;5014015;28;20393;-72
2023/03/05 07:00:19;;;;;;;1999.90;999.90;;;-0.50;99.90;;;;;;5013855;28;20401;-71
2023/03/05 07:02:45;;;;;;;1999.90;999.90;;;-0.50;99.90;;;;;;5006836;28;20108;-72
2023/03/05 07:05:10;;;;;;;1999.90;999.90;;;-0.40;99.90;;;;;;4994029;28;20510;-80
2023/03/05 07:07:36;;;;;;;1999.90;999.90;;;-0.40;99.90;;;;;;4993734;28;20030;-80
2023/03/05 07:10:03;;;;;;;1999.90;999.90;;;-0.40;99.90;;;;;;4993839;28;20390;-72
2023/03/05 07:12:28;;;;;;;1999.90;999.90;;;-0.30;99.90;;;;;;4993736;28;20022;-72
2023/03/05 07:14:54;;;;;;;1999.90;999.90;;;-0.20;99.90;;;;;;5025459;28;20030;-72
2023/03/05 07:17:20;;;;;;;1999.90;999.90;;;-0.20;99.90;;;;;;4993123;28;20027;-72
2023/03/05 07:19:45;;;;;;;1999.90;999.90;;;-0.10;99.90;;;;;;4993751;28;20390;-80
2023/03/05 07:22:11;;;;;;;1999.90;999.90;;;-0.10;99.90;;;;;;4993951;28;20031;-72
2023/03/05 07:24:37;;;;;;;1999.90;999.90;;;0.00;99.90;;;;;;4993571;28;20026;-71
2023/03/05 07:27:03;;;;;;;1999.90;999.90;;;0.00;99.90;;;;;;4993877;28;20041;-72
2023/03/05 07:29:28;;;;;;;1999.90;999.90;;;0.10;99.90;;;;;;4993583;28;20030;-72
2023/03/05 07:31:54;;;;;;;1999.90;999.90;;;0.20;99.90;;;;;;4993573;28;20030;-72
2023/03/05 07:34:21;;;;;;;1999.90;999.90;;;0.20;99.90;;;;;;4993247;28;20022;-80
2023/03/05 07:36:53;;;;;;;1999.90;999.90;;;0.30;99.90;;;;;;4993593;28;20023;-81
2023/03/05 07:39:19;;;;;;;1999.90;999.90;;;0.30;99.90;;;;;;5003616;28;20025;-72
2023/03/05 07:41:46;;;;;;;1999.90;999.90;;;0.40;99.90;;;;;;5032930;28;20042;-72
2023/03/05 07:44:12;;;;;;;1999.90;999.90;;;0.50;99.90;;;;;;5032766;28;20035;-81
2023/03/05 07:46:38;;;;;;;1999.90;999.90;;;0.60;99.90;;;;;;5018158;28;20132;-72
2023/03/05 07:49:03;;;;;;;1999.90;999.90;;;0.70;99.90;;;;;;5012772;28;20041;-72
2023/03/05 07:51:29;;;;;;;1999.90;999.90;;;0.90;99.90;;;;;;5012360;28;20026;-80
2023/03/05 07:53:57;;;;;;;1999.90;999.90;;;1.40;99.90;;;;;;5013030;28;20033;-72
2023/03/05 07:56:30;;;;;;;1999.90;999.90;;;3.60;99.90;;;;;;5012892;28;20022;-72
2023/03/05 07:58:57;;;;;;;1999.90;999.90;;;5.20;99.90;;;;;;5013274;28;20018;-72
2023/03/05 08:01:22;;;;;;;1999.90;999.90;;;5.70;99.90;;;;;;5012896;28;20076;-81
2023/03/05 08:03:48;;;;;;;1999.90;999.90;;;4.80;99.90;;;;;;4996269;28;20034;-81
2023/03/05 08:06:14;;;;;;;1999.90;999.90;;;3.70;99.90;;;;;;4993057;28;20026;-80
2023/03/05 08:08:40;;;;;;;1999.90;999.90;;;3.10;99.90;;;;;;4993311;28;20109;-80
2023/03/05 08:11:09;;;;;;;1999.90;999.90;;;2.70;99.90;;;;;;4993513;28;20054;-72
2023/03/05 08:13:34;;;;;;;1999.90;999.90;;;2.50;99.90;;;;;;4993148;28;20054;-72
2023/03/05 08:16:24;;;;;;;1999.90;999.90;;;2.40;99.90;;;;;;4993352;28;20061;-81
2023/03/05 08:18:52;;;;;;;1999.90;999.90;;;2.40;99.90;;;;;;4992696;28;20119;-80
2023/03/05 08:21:20;;;;;;;1999.90;999.90;;;2.40;99.90;;;;;;4992946;28;20021;-80
2023/03/05 08:23:46;;;;;;;1999.90;999.90;;;2.40;99.90;;;;;;4993212;28;20022;-72
2023/03/05 08:26:14;;;;;;;1999.90;999.90;;;2.50;99.90;;;;;;4993073;28;20101;-80
2023/03/05 08:28:40;;;;;;;1999.90;999.90;;;2.70;99.90;;;;;;4993252;28;20023;-72
2023/03/05 08:31:11;;;;;;;1999.90;999.90;;;3.10;99.90;;;;;;5024506;28;20076;-81
2023/03/05 08:33:37;;;;;;;1999.90;999.90;;;4.70;99.90;;;;;;4992925;28;20050;-81
2023/03/05 08:36:03;;;;;;;1999.90;999.90;;;6.90;99.90;;;;;;4993245;28;20034;-73
2023/03/05 08:38:29;;;;;;;1999.90;999.90;;;8.30;99.90;;;;;;4992905;28;20145;-73
2023/03/05 08:40:54;;;;;;;1999.90;999.90;;;9.00;99.90;;;;;;5028940;28;20064;-81
2023/03/05 08:43:20;;;;;;;1999.90;999.90;;;9.30;99.90;;;;;;5030801;28;20484;-73
2023/03/05 08:45:48;;;;;;;1999.90;999.90;;;10.50;99.90;;;;;;5025405;28;20033;-81
2023/03/05 08:48:14;;;;;;;1999.90;999.90;;;11.30;99.90;;;;;;5016171;28;20026;-73
2023/03/05 08:50:39;;;;;;;1999.90;999.90;;;11.30;99.90;;;;;;5015387;28;20489;-74
2023/03/05 08:53:05;;;;;;;1999.90;999.90;;;11.80;99.90;;;;;;5016075;28;20116;-81
2023/03/05 08:55:31;;;;;;;1999.90;999.90;;;12.00;99.90;;;;;;5016501;28;20397;-81
2023/03/05 08:57:57;;;;;;;1999.90;999.90;;;11.60;99.90;;;;;;5015763;28;20045;-81
2023/03/05 09:00:22;;;;;;;1999.90;999.90;;;11.90;99.90;;;;;;5016105;28;20041;-82
2023/03/05 09:02:48;;;;;;;1999.90;999.90;;;12.30;99.90;;;;;;5008751;28;20030;-74
2023/03/05 09:05:14;;;;;;;1999.90;999.90;;;12.70;99.90;;;;;;5027736;28;20038;-74
2023/03/05 09:07:40;;;;;;;1999.90;999.90;;;13.10;99.90;;;;;;4996145;28;20383;-74
2023/03/05 09:10:06;;;;;;;1999.90;999.90;;;14.20;99.90;;;;;;4996025;28;20077;-82
2023/03/05 09:12:32;;;;;;;1999.90;999.90;;;14.60;98.10;;;;;;4996090;28;20026;-74
2023/03/05 09:14:57;;;;;;;1999.90;999.90;;;14.30;97.70;;;;;;4996128;28;20081;-74
2023/03/05 09:17:23;;;;;;;1999.90;999.90;;;14.10;98.00;;;;;;4995875;28;20096;-74
2023/03/05 09:19:49;;;;;;;1999.90;999.90;;;14.00;98.20;;;;;;4996100;28;20022;-81
2023/03/05 09:22:15;;;;;;;1999.90;999.90;;;14.40;97.80;;;;;;4996138;28;20026;-74
2023/03/05 09:24:42;;;;;;;1999.90;999.90;;;14.20;97.10;;;;;;4995692;28;20045;-81
2023/03/05 09:27:07;;;;;;;1999.90;999.90;;;14.40;97.70;;;;;;4995856;28;20023;-75
2023/03/05 09:29:33;;;;;;;1999.90;999.90;;;14.60;97.30;;;;;;4995750;28;20556;-75
2023/03/05 09:31:58;;;;;;;1999.90;999.90;;;14.50;97.00;;;;;;4995796;28;20499;-81
2023/03/05 09:34:24;;;;;;;1999.90;999.90;;;14.50;96.90;;;;;;4995943;28;20242;-81
2023/03/05 09:36:50;;;;;;;1999.90;999.90;;;14.30;97.10;;;;;;5027016;28;20398;-81
2023/03/05 09:39:15;;;;;;;1999.90;999.90;;;14.20;97.20;;;;;;5004766;28;20032;-80
2023/03/05 09:42:01;;;;;;;1999.90;999.90;;;14.30;96.70;;;;;;5034891;28;20065;-74
2023/03/05 09:44:46;;;;;;;1999.90;999.90;;;14.60;96.40;;;;;;5066864;28;20045;-74
2023/03/05 09:47:12;;;;;;;1999.90;999.90;;;14.20;96.90;;;;;;5014095;28;20045;-80
2023/03/05 09:49:56;;;;;;;1999.90;999.90;;;13.20;97.00;;;;;;5014849;28;20053;-80
2023/03/05 09:52:35;;;;;;;1999.90;999.90;;;11.90;98.80;;;;;;5012659;28;20049;-74
2023/03/05 09:55:02;;;;;;;1999.90;999.90;;;10.10;99.90;;;;;;5015185;28;20084;-73
2023/03/05 09:57:39;;;;;;;1999.90;999.90;;;9.20;99.90;;;;;;5014875;28;20125;-73
2023/03/05 10:00:27;;;;;;;1999.90;999.90;;;9.00;99.90;;;;;;5014928;28;20388;-79
2023/03/05 10:02:57;;;;;;;1999.90;999.90;;;8.70;99.90;;;;;;5009687;28;20088;-79
2023/03/05 10:06:00;;;;;;;1999.90;999.90;;;8.70;99.90;;;;;;5000243;28;20100;-79
2023/03/05 10:08:36;;;;;;;1999.90;999.90;;;8.60;99.90;;;;;;5014737;28;20022;-74
2023/03/05 10:11:10;;;;;;;1999.90;999.90;;;8.80;99.90;;;;;;5015030;28;20045;-73
2023/03/05 10:13:41;;;;;;;1999.90;999.90;;;8.60;99.90;;;;;;5014277;28;20084;-79
2023/03/05 10:16:44;;;;;;;1999.90;999.90;;;8.50;99.90;;;;;;5014405;28;20057;-79
2023/03/05 10:19:41;;;;;;;1999.90;999.90;;;8.60;99.90;;;;;;5013882;28;20080;-73
2023/03/05 10:22:22;;;;;;;1999.90;999.90;;;8.40;99.90;;;;;;5014607;28;20026;-73
2023/03/05 10:24:59;;;;;;;1999.90;999.90;;;8.50;99.90;;;;;;5014279;28;20036;-78
2023/03/05 10:27:42;;;;;;;1999.90;999.90;;;8.50;99.90;;;;;;5014151;28;20038;-78
2023/03/05 10:30:45;;;;;;;1999.90;999.90;;;8.60;99.90;;;;;;5014226;28;20021;-78
2023/03/05 10:33:17;;;;;;;1999.90;999.90;;;8.40;99.90;;;;;;5014203;28;20049;-73
2023/03/05 10:36:01;;;;;;;1999.90;999.90;;;8.60;99.90;;;;;;5013036;28;20389;-73
2023/03/05 10:38:43;;;;;;;1999.90;999.90;;;8.80;99.90;;;;;;5013673;28;20037;-78
2023/03/05 10:41:35;;;;;;;1999.90;999.90;;;8.70;99.90;;;;;;4994122;28;20039;-78
2023/03/05 10:44:19;;;;;;;1999.90;999.90;;;8.40;99.90;;;;;;5025766;28;20153;-78
2023/03/05 10:46:47;;;;;;;1999.90;999.90;;;8.50;99.90;;;;;;5009413;28;20491;-78
2023/03/05 10:49:27;;;;;;;1999.90;999.90;;;8.60;99.90;;;;;;5013706;28;20038;-78
2023/03/05 10:52:14;;;;;;;1999.90;999.90;;;8.90;99.90;;;;;;5012886;28;20108;-73
2023/03/05 10:54:41;;;;;;;1999.90;999.90;;;8.60;99.90;;;;;;5013587;28;20026;-78
2023/03/05 10:57:11;;;;;;;1999.90;999.90;;;8.60;99.90;;;;;;5013645;28;20111;-78
2023/03/05 10:59:36;;;;;;;1999.90;999.90;;;9.00;99.90;;;;;;5013584;28;20029;-73
2023/03/05 11:02:07;;;;;;;1999.90;999.90;;;9.50;99.90;;;;;;5011911;28;20034;-73
2023/03/05 11:04:36;;;;;;;1999.90;999.90;;;9.80;99.90;;;;;;4994282;28;20446;-79
2023/03/05 11:07:14;;;;;;;1999.90;999.90;;;9.50;99.90;;;;;;4993864;28;20034;-79
2023/03/05 11:10:03;;;;;;;1999.90;999.90;;;9.00;99.90;;;;;;4993657;28;20029;-73
2023/03/05 11:12:34;;;;;;;1999.90;999.90;;;8.80;99.90;;;;;;4998406;28;20489;-73
2023/03/05 11:15:09;;;;;;;1999.90;999.90;;;8.50;99.90;;;;;;4993788;28;20022;-73
2023/03/05 11:18:02;;;;;;;1999.90;999.90;;;8.80;99.90;;;;;;4993732;28;20034;-79
2023/03/05 11:20:28;;;;;;;;;;;9.20;99.90;;;;;;4994328;28;20101;-79
2023/03/05 11:23:09;;;;;;;1999.90;999.90;;;9.20;99.90;;;;;;4993207;28;20364;-79
2023/03/05 11:25:59;;;;;;;1999.90;999.90;;;9.00;99.90;;;;;;4993601;28;20707;-73
2023/03/05 11:28:56;;;;;;;1999.90;999.90;;;8.90;99.90;;;;;;5025217;28;20084;-78
2023/03/05 11:31:24;;;;;;;1999.90;999.90;;;9.10;99.90;;;;;;5010246;28;20038;-79
2023/03/05 11:34:02;;;;;;;1999.90;999.90;;;8.80;99.90;;;;;;4993948;28;20441;-73
2023/03/05 11:36:28;;;;;;;1999.90;999.90;;;8.90;99.90;;;;;;4993856;28;20030;-79
2023/03/05 11:38:59;;;;;;;1999.90;999.90;;;9.10;99.90;;;;;;4996794;28;20022;-73
2023/03/05 11:41:32;;;;;;;1999.90;999.90;;;9.30;99.90;;;;;;5032679;28;20480;-73
2023/03/05 11:44:02;;;;;;;1999.90;999.90;;;9.40;99.90;;;;;;5032830;28;20447;-79
2023/03/05 11:46:33;;;;;;;1999.90;999.90;;;9.00;99.90;;;;;;5019559;28;20104;-79
2023/03/05 11:48:59;;;;;;;1999.90;999.90;;;9.00;99.90;;;;;;5013200;28;20460;-73
2023/03/05 11:51:33;;;;;;;1999.90;999.90;;;9.20;99.90;;;;;;5012682;28;20026;-73
2023/03/05 11:54:07;;;;;;;1999.90;999.90;;;9.30;99.90;;;;;;5012441;28;20033;-73
2023/03/05 11:56:36;;;;;;;1999.90;999.90;;;9.50;99.90;;;;;;5012874;28;20068;-73
2023/03/05 11:59:13;;;;;;;1999.90;999.90;;;9.50;99.90;;;;;;5013312;28;20044;-73
2023/03/05 12:01:48;;;;;;;1999.90;999.90;;;9.60;99.90;;;;;;5012948;28;20489;-79
2023/03/05 12:04:16;;;;;;;1999.90;999.90;;;9.50;99.90;;;;;;4993992;28;20061;-73
2023/03/05 12:06:56;;;;;;;1999.90;999.90;;;9.80;99.90;;;;;;4993179;28;20629;-73
2023/03/05 12:09:29;;;;;;;1999.90;999.90;;;9.50;99.90;;;;;;4993245;28;20054;-79
2023/03/05 12:12:12;;;;;;;1999.90;999.90;;;9.50;99.90;;;;;;4992959;28;20088;-79
2023/03/05 12:15:13;;;;;;;1999.90;999.90;;;9.70;99.90;;;;;;4993283;28;20022;-79